createdAt,value
2018-10-05T00:00:29.422Z,102110.10
2018-10-05T00:02:58.468Z,102110.36
2018-10-05T00:05:27.466Z,102105.88
2018-10-05T00:07:56.491Z,102105.38
2018-10-05T00:10:25.552Z,102108.73
2018-10-05T00:12:54.900Z,102107.77
2018-10-05T00:15:23.983Z,102100.91
2018-10-05T00:17:54.241Z,102104.77
2018-10-05T00:20:23.286Z,102106.12
2018-10-05T00:22:52.430Z,102105.35
2018-10-05T00:25:21.701Z,102096.63
2018-10-05T00:27:51.039Z,102095.88
2018-10-05T00:30:20.268Z,102089.47
2018-10-05T00:32:49.247Z,102086.55
2018-10-05T00:35:18.284Z,102086.47
2018-10-05T00:37:47.413Z,102080.45
2018-10-05T00:40:16.435Z,102080.88
2018-10-05T00:42:45.573Z,102082.62
2018-10-05T00:45:14.563Z,102078.23
2018-10-05T00:47:43.863Z,102074.82
2018-10-05T00:50:12.957Z,102075.69
2018-10-05T00:52:42.302Z,102075.64
2018-10-05T00:55:11.307Z,102078.11
2018-10-05T00:57:40.374Z,102072.90
2018-10-05T01:00:09.647Z,102076.66
2018-10-05T01:02:38.692Z,102076.53
2018-10-05T01:05:07.661Z,102075.11
2018-10-05T01:07:36.938Z,102071.98
2018-10-05T01:10:06.034Z,102072.08
2018-10-05T01:12:35.038Z,102077.24
2018-10-05T01:15:05.038Z,102076.55
2018-10-05T01:17:34.349Z,102066.20
2018-10-05T01:20:03.378Z,102069.64
2018-10-05T01:22:32.380Z,102065.42
2018-10-05T01:25:01.456Z,102067.87
2018-10-05T01:27:30.535Z,102068.79
2018-10-05T01:29:59.563Z,102071.55
2018-10-05T01:32:28.608Z,102063.53
2018-10-05T01:34:58.509Z,102062.51
2018-10-05T01:37:27.732Z,102057.98
2018-10-05T01:39:56.918Z,102056.25
2018-10-05T01:42:25.925Z,102062.59
2018-10-05T01:44:54.917Z,102057.23
2018-10-05T01:47:23.924Z,102061.30
2018-10-05T01:49:53.792Z,102054.66
2018-10-05T01:52:22.790Z,102054.73
2018-10-05T01:54:52.220Z,102052.95
2018-10-05T01:57:21.649Z,102048.32
2018-10-05T01:59:50.838Z,102046.39
2018-10-05T02:02:20.130Z,102039.47
2018-10-05T02:04:49.526Z,102037.80
2018-10-05T02:07:18.540Z,102043.89
2018-10-05T02:09:47.533Z,102044.47
2018-10-05T02:12:16.525Z,102033.09
2018-10-05T02:14:45.500Z,102035.22
2018-10-05T02:17:14.490Z,102039.42
2018-10-05T02:19:43.503Z,102033.99
2018-10-05T02:22:12.499Z,102030.95
2018-10-05T02:24:41.502Z,102028.77
2018-10-05T02:27:10.523Z,102021.02
2018-10-05T02:29:39.516Z,102025.73
2018-10-05T02:32:08.492Z,102027.09
2018-10-05T02:34:37.493Z,102025.25
2018-10-05T02:37:06.533Z,102026.37
2018-10-05T02:39:35.821Z,102031.31
2018-10-05T02:42:05.115Z,102022.16
2018-10-05T02:44:34.321Z,102023.45
2018-10-05T02:47:03.353Z,102023.34
2018-10-05T02:49:32.355Z,102018.88
2018-10-05T02:52:01.353Z,102011.45
2018-10-05T02:54:30.562Z,102020.45
2018-10-05T02:57:00.018Z,102019.23
2018-10-05T02:59:29.254Z,102012.52
2018-10-05T03:02:15.533Z,102022.95
2018-10-05T03:04:44.532Z,102020.58
2018-10-05T03:07:13.633Z,102016.44
2018-10-05T03:09:42.859Z,102017.84
2018-10-05T03:12:11.835Z,102007.53
2018-10-05T03:14:40.852Z,102003.03
2018-10-05T03:17:09.859Z,102001.53
2018-10-05T03:19:39.385Z,101997.03
2018-10-05T03:22:08.637Z,101985.41
2018-10-05T03:24:37.633Z,101991.23
2018-10-05T03:27:06.723Z,101982.25
2018-10-05T03:29:35.954Z,101986.77
2018-10-05T03:32:04.966Z,101990.23
2018-10-05T03:34:34.410Z,101987.95
2018-10-05T03:37:03.647Z,101995.59
2018-10-05T03:39:32.661Z,101996.50
2018-10-05T03:42:02.158Z,101995.72
2018-10-05T03:44:31.143Z,101993.45
2018-10-05T03:47:00.129Z,101989.83
2018-10-05T03:49:29.134Z,101994.55
2018-10-05T03:51:58.697Z,101989.70
2018-10-05T03:54:27.711Z,101988.31
2018-10-05T03:56:56.746Z,101983.73
2018-10-05T03:59:25.786Z,101982.81
2018-10-05T04:01:54.778Z,101985.17
2018-10-05T04:04:23.787Z,101975.97
2018-10-05T04:06:52.831Z,101983.98
2018-10-05T04:09:21.961Z,101978.13
2018-10-05T04:11:51.226Z,101973.51
2018-10-05T04:14:20.479Z,101974.91
2018-10-05T04:16:49.477Z,101969.86
2018-10-05T04:19:18.502Z,101976.77
2018-10-05T04:21:47.487Z,101975.90
2018-10-05T04:24:16.542Z,101974.50
2018-10-05T04:26:45.859Z,101972.70
2018-10-05T04:29:15.138Z,101975.39
2018-10-05T04:31:44.167Z,101984.53
2018-10-05T04:34:13.679Z,101982.80
2018-10-05T04:36:42.675Z,101985.36
2018-10-05T04:39:11.714Z,101986.34
2018-10-05T04:41:40.733Z,101987.72
2018-10-05T04:44:10.255Z,101990.11
2018-10-05T04:46:39.260Z,101990.31
2018-10-05T04:49:08.356Z,101987.49
2018-10-05T04:51:37.355Z,101989.33
2018-10-05T04:54:06.719Z,101993.25
2018-10-05T04:56:35.736Z,101991.47
2018-10-05T04:59:04.851Z,101993.05
2018-10-05T05:01:34.034Z,101996.31
2018-10-05T05:04:03.041Z,101992.27
2018-10-05T05:06:33.286Z,102001.26
2018-10-05T05:09:02.506Z,102000.70
2018-10-05T05:11:31.714Z,101998.70
2018-10-05T05:14:00.754Z,102003.30
2018-10-05T05:16:30.165Z,102000.13
2018-10-05T05:18:59.191Z,102008.80
2018-10-05T05:21:28.570Z,102009.88
2018-10-05T05:23:57.656Z,102003.42
2018-10-05T05:26:27.362Z,102004.50
2018-10-05T05:28:57.272Z,102003.84
2018-10-05T05:31:26.306Z,102011.14
2018-10-05T05:33:55.338Z,102009.20
2018-10-05T05:36:24.525Z,102006.19
2018-10-05T05:38:53.534Z,102012.73
2018-10-05T05:41:22.553Z,102013.68
2018-10-05T05:43:51.694Z,102022.38
2018-10-05T05:46:20.971Z,102015.98
2018-10-05T05:48:50.226Z,102029.00
2018-10-05T05:51:19.468Z,102010.49
2018-10-05T05:53:49.005Z,102022.16
2018-10-05T05:56:18.665Z,102016.63
2018-10-05T05:58:47.949Z,102024.16
2018-10-05T06:01:17.729Z,102027.17
2018-10-05T06:03:46.903Z,102021.85
2018-10-05T06:06:16.539Z,102031.81
2018-10-05T06:08:45.731Z,102017.04
2018-10-05T06:11:14.723Z,102017.98
2018-10-05T06:13:43.995Z,102012.34
2018-10-05T06:16:13.331Z,102020.72
2018-10-05T06:18:42.263Z,102020.53
2018-10-05T06:21:11.286Z,102025.80
2018-10-05T06:23:40.294Z,102023.16
2018-10-05T06:26:09.552Z,102026.75
2018-10-05T06:28:38.827Z,102027.73
2018-10-05T06:31:08.154Z,102036.14
2018-10-05T06:33:37.132Z,102030.07
2018-10-05T06:36:06.378Z,102025.97
2018-10-05T06:38:35.455Z,102026.26
2018-10-05T06:41:04.714Z,102028.32
2018-10-05T06:43:33.740Z,102024.53
2018-10-05T06:46:03.118Z,102021.04
2018-10-05T06:48:32.122Z,102026.84
2018-10-05T06:51:01.178Z,102019.35
2018-10-05T06:53:30.223Z,102022.45
2018-10-05T06:55:59.662Z,102031.97
2018-10-05T06:58:28.699Z,102024.09
2018-10-05T07:00:57.718Z,102026.79
2018-10-05T07:03:26.714Z,102038.96
2018-10-05T07:05:55.755Z,102037.69
2018-10-05T07:08:25.000Z,102040.83
2018-10-05T07:10:54.208Z,102039.48
2018-10-05T07:13:23.719Z,102039.02
2018-10-05T07:15:52.803Z,102043.86
2018-10-05T07:18:21.761Z,102043.02
2018-10-05T07:20:50.878Z,102049.08
2018-10-05T07:23:20.121Z,102045.01
2018-10-05T07:25:49.134Z,102044.44
2018-10-05T07:28:18.633Z,102042.70
2018-10-05T07:30:48.066Z,102040.80
2018-10-05T07:33:17.349Z,102033.64
2018-10-05T07:35:46.404Z,102032.38
2018-10-05T07:38:15.698Z,102033.32
2018-10-05T07:40:44.862Z,102030.30
2018-10-05T07:43:14.680Z,102028.56
2018-10-05T07:45:44.510Z,102032.04
2018-10-05T07:48:13.656Z,102027.73
2018-10-05T07:50:42.770Z,102021.97
2018-10-05T07:53:11.812Z,102027.55
2018-10-05T07:55:41.049Z,102032.03
2018-10-05T07:58:10.073Z,102033.02
2018-10-05T08:00:39.390Z,102032.64
2018-10-05T08:03:08.743Z,102030.91
2018-10-05T08:05:37.808Z,102032.23
2018-10-05T08:08:08.095Z,102026.94
2018-10-05T08:10:37.147Z,102028.80
2018-10-05T08:13:06.393Z,102029.67
2018-10-05T08:15:37.552Z,102029.23
2018-10-05T08:18:10.657Z,102023.05
2018-10-05T08:20:43.971Z,102026.23
2018-10-05T08:23:14.664Z,102022.78
2018-10-05T08:25:43.666Z,102025.88
2018-10-05T08:28:15.688Z,102015.46
2018-10-05T08:30:53.538Z,102011.59
2018-10-05T08:33:22.787Z,102016.31
2018-10-05T08:35:52.231Z,102017.69
2018-10-05T08:38:21.312Z,102015.90
2018-10-05T08:40:50.846Z,102006.42
2018-10-05T08:43:19.882Z,102004.66
2018-10-05T08:45:48.938Z,102007.30
2018-10-05T08:48:17.994Z,101999.87
2018-10-05T08:50:47.015Z,101992.09
2018-10-05T08:53:16.282Z,101991.25
2018-10-05T08:55:45.490Z,101983.88
2018-10-05T08:58:14.566Z,101983.84
2018-10-05T09:00:43.663Z,101987.29
2018-10-05T09:03:12.951Z,101982.55
2018-10-05T09:05:42.192Z,101982.55
2018-10-05T09:08:11.131Z,101979.53
2018-10-05T09:10:41.124Z,101983.41
2018-10-05T09:13:10.199Z,101982.13
2018-10-05T09:15:39.281Z,101970.84
2018-10-05T09:18:08.320Z,101970.84
2018-10-05T09:20:37.330Z,101973.88
2018-10-05T09:23:06.640Z,101966.05
2018-10-05T09:25:35.866Z,101963.44
2018-10-05T09:28:04.954Z,101962.58
2018-10-05T09:30:34.041Z,101963.02
2018-10-05T09:33:03.007Z,101955.13
2018-10-05T09:35:33.871Z,101949.53
2018-10-05T09:38:02.957Z,101952.99
2018-10-05T09:40:32.206Z,101943.43
2018-10-05T09:43:01.230Z,101943.88
2018-10-05T09:45:30.715Z,101942.11
2018-10-05T09:48:02.197Z,101940.77
2018-10-05T09:50:31.372Z,101940.37
2018-10-05T09:53:00.868Z,101935.55
2018-10-05T09:55:29.911Z,101931.20
2018-10-05T09:57:59.303Z,101930.84
2018-10-05T10:00:33.602Z,101938.60
2018-10-05T10:03:08.790Z,101923.34
2018-10-05T10:05:37.842Z,101929.07
2018-10-05T10:08:07.190Z,101922.13
2018-10-05T10:10:36.082Z,101919.91
2018-10-05T10:13:05.215Z,101911.13
2018-10-05T10:15:34.448Z,101916.46
2018-10-05T10:18:03.584Z,101900.72
2018-10-05T10:20:32.678Z,101895.91
2018-10-05T10:23:01.673Z,101897.38
2018-10-05T10:25:30.946Z,101891.76
2018-10-05T10:28:00.153Z,101885.56
2018-10-05T10:30:29.537Z,101877.22
2018-10-05T10:32:58.546Z,101883.52
2018-10-05T10:35:27.590Z,101873.73
2018-10-05T10:37:56.690Z,101875.04
2018-10-05T10:40:25.714Z,101876.89
2018-10-05T10:42:54.923Z,101871.06
2018-10-05T10:45:23.933Z,101862.62
2018-10-05T10:47:53.047Z,101862.92
2018-10-05T10:50:22.324Z,101866.38
2018-10-05T10:52:51.862Z,101851.70
2018-10-05T10:55:20.888Z,101850.78
2018-10-05T10:57:50.478Z,101838.77
2018-10-05T11:00:19.495Z,101841.95
2018-10-05T11:02:48.499Z,101832.41
2018-10-05T11:05:17.572Z,101838.50
2018-10-05T11:07:46.579Z,101833.57
2018-10-05T11:10:15.589Z,101829.47
2018-10-05T11:12:45.269Z,101828.72
2018-10-05T11:15:14.307Z,101828.74
2018-10-05T11:17:43.317Z,101820.20
2018-10-05T11:20:12.527Z,101823.24
2018-10-05T11:22:41.643Z,101817.69
2018-10-05T11:25:10.899Z,101817.16
2018-10-05T11:27:39.916Z,101807.52
2018-10-05T11:30:09.570Z,101807.66
2018-10-05T11:32:38.752Z,101805.81
2018-10-05T11:35:08.003Z,101801.42
2018-10-05T11:37:37.224Z,101792.19
2018-10-05T11:40:06.541Z,101798.58
2018-10-05T11:42:35.721Z,101788.76
2018-10-05T11:45:04.852Z,101786.41
2018-10-05T11:47:34.636Z,101782.87
2018-10-05T11:50:03.665Z,101770.88
2018-10-05T11:52:32.982Z,101765.00
2018-10-05T11:55:01.935Z,101764.76
2018-10-05T11:57:31.014Z,101758.08
2018-10-05T12:00:00.043Z,101748.97
2018-10-05T12:02:29.091Z,101740.31
2018-10-05T12:04:58.141Z,101748.20
2018-10-05T12:07:27.214Z,101736.67
2018-10-05T12:09:56.518Z,101735.27
2018-10-05T12:12:25.527Z,101735.13
2018-10-05T12:14:54.576Z,101736.20
2018-10-05T12:17:23.658Z,101726.95
2018-10-05T12:19:52.731Z,101725.81
2018-10-05T12:22:21.774Z,101717.94
2018-10-05T12:24:50.819Z,101710.00
2018-10-05T12:27:19.859Z,101704.72
2018-10-05T12:29:49.002Z,101705.80
2018-10-05T12:32:17.998Z,101711.65
2018-10-05T12:34:47.020Z,101708.98
2018-10-05T12:37:16.141Z,101708.88
2018-10-05T12:39:45.231Z,101699.94
2018-10-05T12:42:14.334Z,101694.98
2018-10-05T12:44:43.460Z,101701.55
2018-10-05T12:47:12.484Z,101695.39
2018-10-05T12:49:41.521Z,101690.62
2018-10-05T12:52:10.538Z,101689.09
2018-10-05T12:54:39.793Z,101684.92
2018-10-05T12:57:08.905Z,101684.72
2018-10-05T12:59:37.936Z,101679.24
2018-10-05T13:02:07.071Z,101671.70
2018-10-05T13:04:36.134Z,101672.27
2018-10-05T13:07:05.268Z,101665.51
2018-10-05T13:09:34.357Z,101664.72
2018-10-05T13:12:03.618Z,101662.44
2018-10-05T13:14:32.636Z,101659.72
2018-10-05T13:17:01.698Z,101662.86
2018-10-05T13:19:30.814Z,101663.85
2018-10-05T13:22:00.101Z,101668.21
2018-10-05T13:24:29.064Z,101662.92
2018-10-05T13:26:58.116Z,101656.71
2018-10-05T13:29:27.188Z,101652.12
2018-10-05T13:31:56.244Z,101653.27
2018-10-05T13:34:25.271Z,101643.91
2018-10-05T13:36:54.425Z,101643.23
2018-10-05T13:39:23.412Z,101642.86
2018-10-05T13:41:52.433Z,101641.28
2018-10-05T13:44:21.426Z,101637.81
2018-10-05T13:46:50.455Z,101644.32
2018-10-05T13:49:19.619Z,101635.89
2018-10-05T13:51:48.825Z,101636.80
2018-10-05T13:54:17.902Z,101631.33
2018-10-05T13:56:46.967Z,101623.77
2018-10-05T13:59:15.978Z,101619.55
2018-10-05T14:01:44.987Z,101617.59
2018-10-05T14:04:13.989Z,101618.59
2018-10-05T14:06:43.033Z,101610.83
2018-10-05T14:09:12.046Z,101608.18
2018-10-05T14:11:41.282Z,101609.43
2018-10-05T14:14:10.295Z,101605.21
2018-10-05T14:16:39.346Z,101600.33
2018-10-05T14:19:08.746Z,101587.20
2018-10-05T14:21:37.852Z,101590.78
2018-10-05T14:24:06.951Z,101585.19
2018-10-05T14:26:36.080Z,101586.97
2018-10-05T14:29:05.241Z,101585.59
2018-10-05T14:31:34.255Z,101580.83
2018-10-05T14:34:04.436Z,101573.59
2018-10-05T14:36:33.740Z,101576.39
2018-10-05T14:39:02.792Z,101572.26
2018-10-05T14:41:31.862Z,101570.98
2018-10-05T14:44:01.039Z,101567.90
2018-10-05T14:46:30.040Z,101569.69
2018-10-05T14:48:59.117Z,101565.67
2018-10-05T14:51:29.254Z,101562.63
2018-10-05T14:53:59.305Z,101564.22
2018-10-05T14:56:28.909Z,101559.94
2018-10-05T14:58:58.787Z,101554.45
2018-10-05T15:01:29.031Z,101555.06
2018-10-05T15:03:58.325Z,101548.95
2018-10-05T15:06:29.556Z,101548.16
2018-10-05T15:09:00.272Z,101548.85
2018-10-05T15:11:30.006Z,101539.81
2018-10-05T15:13:59.279Z,101533.72
2018-10-05T15:16:29.463Z,101531.09
2018-10-05T15:18:59.412Z,101524.97
2018-10-05T15:21:28.545Z,101524.16
2018-10-05T15:23:58.758Z,101528.30
2018-10-05T15:26:28.177Z,101525.32
2018-10-05T15:28:59.301Z,101520.22
2018-10-05T15:31:28.610Z,101518.08
2018-10-05T15:33:58.459Z,101516.53
2018-10-05T15:36:27.555Z,101513.84
2018-10-05T15:38:56.934Z,101510.81
2018-10-05T15:41:26.928Z,101509.81
2018-10-05T15:43:55.958Z,101510.21
2018-10-05T15:47:09.341Z,101502.58
2018-10-05T15:49:39.547Z,101504.94
2018-10-05T15:52:08.818Z,101503.63
2018-10-05T15:54:37.976Z,101504.47
2018-10-05T15:57:07.159Z,101506.20
2018-10-05T15:59:36.840Z,101502.60
2018-10-05T16:02:05.902Z,101501.34
2018-10-05T16:04:34.914Z,101504.98
2018-10-05T16:07:04.168Z,101502.77
2018-10-05T16:09:33.279Z,101498.62
2018-10-05T16:12:02.464Z,101497.61
2018-10-05T16:14:31.625Z,101495.89
2018-10-05T16:17:01.003Z,101496.54
2018-10-05T16:19:30.239Z,101497.19
2018-10-05T16:22:00.062Z,101491.41
2018-10-05T16:24:45.066Z,101489.24
2018-10-05T16:27:14.254Z,101486.33
2018-10-05T16:29:43.606Z,101489.16
2018-10-05T16:32:13.220Z,101485.53
2018-10-05T16:34:42.465Z,101478.84
2018-10-05T16:37:11.500Z,101484.28
2018-10-05T16:39:40.710Z,101482.13
2018-10-05T16:42:09.852Z,101479.16
2018-10-05T16:44:39.079Z,101479.91
2018-10-05T16:47:08.081Z,101482.88
2018-10-05T16:49:37.112Z,101481.02
2018-10-05T16:52:06.310Z,101478.80
2018-10-05T16:54:35.566Z,101480.72
2018-10-05T16:57:04.692Z,101479.77
2018-10-05T16:59:33.811Z,101476.78
2018-10-05T17:02:02.999Z,101470.67
2018-10-05T17:04:32.606Z,101475.10
2018-10-05T17:07:01.638Z,101469.47
2018-10-05T17:09:30.978Z,101466.09
2018-10-05T17:12:00.027Z,101463.84
2018-10-05T17:14:29.055Z,101456.91
2018-10-05T17:16:58.448Z,101454.40
2018-10-05T17:19:27.406Z,101454.40
2018-10-05T17:21:56.678Z,101453.67
2018-10-05T17:24:25.915Z,101451.16
2018-10-05T17:26:54.936Z,101453.80
2018-10-05T17:29:23.999Z,101445.35
2018-10-05T17:31:53.375Z,101445.93
2018-10-05T17:34:22.649Z,101445.57
2018-10-05T17:36:51.961Z,101447.37
2018-10-05T17:39:21.658Z,101445.20
2018-10-05T17:41:50.759Z,101437.73
2018-10-05T17:44:19.790Z,101440.77
2018-10-05T17:46:49.039Z,101442.19
2018-10-05T17:49:18.190Z,101436.84
2018-10-05T17:51:48.107Z,101439.09
2018-10-05T17:54:17.232Z,101427.34
2018-10-05T17:56:46.463Z,101428.69
2018-10-05T17:59:15.553Z,101425.40
2018-10-05T18:01:44.859Z,101423.64
2018-10-05T18:04:13.874Z,101424.38
2018-10-05T18:06:42.888Z,101423.97
2018-10-05T18:09:11.987Z,101426.53
2018-10-05T18:11:41.278Z,101420.17
2018-10-05T18:14:10.461Z,101422.75
2018-10-05T18:16:39.840Z,101426.81
2018-10-05T18:19:08.830Z,101418.38
2018-10-05T18:21:38.069Z,101418.06
2018-10-05T18:24:07.442Z,101414.55
2018-10-05T18:26:36.438Z,101412.22
2018-10-05T18:29:05.450Z,101417.48
2018-10-05T18:31:34.632Z,101412.02
2018-10-05T18:34:03.733Z,101407.82
2018-10-05T18:36:33.014Z,101409.87
2018-10-05T18:39:03.082Z,101409.62
2018-10-05T18:41:32.132Z,101402.03
2018-10-05T18:46:37.120Z,101403.79
2018-10-05T18:49:06.516Z,101399.02
2018-10-05T18:51:35.632Z,101399.87
2018-10-05T18:54:05.065Z,101393.44
2018-10-05T18:56:51.269Z,101396.94
2018-10-05T18:59:21.289Z,101391.03
2018-10-05T19:01:50.559Z,101391.36
2018-10-05T19:04:19.599Z,101383.09
2018-10-05T19:06:48.741Z,101377.42
2018-10-05T19:09:17.894Z,101379.99
2018-10-05T19:11:47.640Z,101377.84
2018-10-05T19:14:16.845Z,101379.22
2018-10-05T19:16:45.937Z,101381.83
2018-10-05T19:19:14.981Z,101377.02
2018-10-05T19:21:44.424Z,101371.84
2018-10-05T19:24:14.112Z,101376.20
2018-10-05T19:26:43.836Z,101371.88
2018-10-05T19:29:12.835Z,101367.56
2018-10-05T19:31:42.134Z,101371.39
2018-10-05T19:34:11.979Z,101361.90
2018-10-05T19:36:41.745Z,101362.01
2018-10-05T19:39:12.090Z,101362.42
2018-10-05T19:41:42.329Z,101357.58
2018-10-05T19:44:11.945Z,101353.55
2018-10-05T19:46:41.789Z,101351.91
2018-10-05T19:49:11.507Z,101352.36
2018-10-05T19:51:41.014Z,101347.14
2018-10-05T19:54:10.583Z,101349.92
2018-10-05T19:56:39.607Z,101344.17
2018-10-05T19:59:09.823Z,101354.84
2018-10-05T20:01:40.174Z,101344.59
2018-10-05T20:04:09.701Z,101334.10
2018-10-05T20:06:40.360Z,101332.80
2018-10-05T20:09:09.997Z,101331.20
2018-10-05T20:11:39.678Z,101324.36
2018-10-05T20:14:09.199Z,101323.05
2018-10-05T20:16:38.756Z,101330.42
2018-10-05T20:19:07.823Z,101314.79
2018-10-05T20:21:37.677Z,101315.17
2018-10-05T20:24:07.473Z,101312.72
2018-10-05T20:26:36.964Z,101312.56
2018-10-05T20:29:06.386Z,101314.70
2018-10-05T20:31:35.379Z,101315.55
2018-10-05T20:34:05.159Z,101311.38
2018-10-05T20:36:35.284Z,101305.64
2018-10-05T20:39:06.428Z,101304.34
2018-10-05T20:41:36.508Z,101308.45
2018-10-05T20:44:05.842Z,101308.75
2018-10-05T20:46:34.981Z,101305.77
2018-10-05T20:49:04.366Z,101300.17
2018-10-05T20:51:33.673Z,101291.83
2018-10-05T20:54:03.294Z,101290.97
2018-10-05T20:56:33.509Z,101292.77
2018-10-05T20:59:04.018Z,101284.05
2018-10-05T21:01:33.933Z,101281.47
2018-10-05T21:04:05.919Z,101284.93
2018-10-05T21:06:35.702Z,101279.81
2018-10-05T21:09:07.253Z,101292.36
2018-10-05T21:11:37.552Z,101295.84
2018-10-05T21:14:07.862Z,101289.50
2018-10-05T21:16:36.958Z,101280.73
2018-10-05T21:19:07.181Z,101283.74
2018-10-05T21:21:36.358Z,101279.50
2018-10-05T21:24:05.726Z,101282.55
2018-10-05T21:26:36.676Z,101283.39
2018-10-05T21:29:06.215Z,101270.45
2018-10-05T21:31:38.172Z,101272.31
2018-10-05T21:34:08.113Z,101268.77
2018-10-05T21:36:37.685Z,101269.59
2018-10-05T21:39:09.522Z,101272.61
2018-10-05T21:41:38.820Z,101271.41
2018-10-05T21:44:08.073Z,101268.27
2018-10-05T21:46:37.160Z,101268.36
2018-10-05T21:49:06.200Z,101256.24
2018-10-05T21:51:35.235Z,101261.33
2018-10-05T21:54:04.270Z,101253.06
2018-10-05T21:56:33.523Z,101246.30
2018-10-05T21:59:02.674Z,101243.35
2018-10-05T22:01:33.347Z,101240.27
2018-10-05T22:04:02.463Z,101241.59
2018-10-05T22:06:31.574Z,101235.13
2018-10-05T22:09:00.583Z,101228.58
2018-10-05T22:11:29.611Z,101229.09
2018-10-05T22:13:58.696Z,101226.59
2018-10-05T22:16:28.074Z,101223.89
2018-10-05T22:18:57.226Z,101215.60
2018-10-05T22:21:26.587Z,101212.01
2018-10-05T22:23:55.625Z,101205.34
2018-10-05T22:26:24.686Z,101208.28
2018-10-05T22:28:54.040Z,101208.38
2018-10-05T22:31:23.111Z,101210.53
2018-10-05T22:33:52.223Z,101207.52
2018-10-05T22:36:21.913Z,101202.30
2018-10-05T22:38:50.923Z,101209.67
2018-10-05T22:41:20.134Z,101211.84
2018-10-05T22:43:49.770Z,101213.61
2018-10-05T22:46:19.283Z,101211.88
2018-10-05T22:48:48.413Z,101209.33
2018-10-05T22:51:17.473Z,101210.34
2018-10-05T22:53:46.471Z,101210.45
2018-10-05T22:56:15.506Z,101210.81
2018-10-05T22:58:44.561Z,101212.64
2018-10-05T23:01:13.564Z,101208.73
2018-10-05T23:03:42.560Z,101203.95
2018-10-05T23:06:11.837Z,101201.83
2018-10-05T23:08:40.834Z,101202.56
2018-10-05T23:11:10.095Z,101202.45
2018-10-05T23:13:39.152Z,101201.28
2018-10-05T23:16:08.378Z,101188.41
2018-10-05T23:18:37.378Z,101202.97
2018-10-05T23:21:06.933Z,101199.22
2018-10-05T23:23:35.939Z,101197.49
2018-10-05T23:26:04.941Z,101185.25
2018-10-05T23:28:34.157Z,101182.73
2018-10-05T23:31:03.266Z,101179.32
2018-10-05T23:33:32.508Z,101177.45
2018-10-05T23:36:01.737Z,101173.28
2018-10-05T23:38:30.767Z,101182.68
2018-10-05T23:40:59.803Z,101180.47
2018-10-05T23:43:28.825Z,101180.89
2018-10-05T23:45:57.863Z,101180.41
2018-10-05T23:48:27.171Z,101177.41
2018-10-05T23:50:56.408Z,101175.27
2018-10-05T23:53:25.744Z,101173.19
2018-10-05T23:55:55.341Z,101170.03
2018-10-05T23:58:24.346Z,101180.00
